createdAt,value
2023-05-12T00:00:25.644Z,13968.1543
2023-05-12T00:01:26.699Z,13969.3848
2023-05-12T00:02:28.432Z,13971.0000
2023-05-12T00:03:30.589Z,13968.6924
2023-05-12T00:04:31.727Z,13965.6152
2023-05-12T00:05:33.269Z,13966.4619
2023-05-12T00:06:34.935Z,13970.3076
2023-05-12T00:07:36.614Z,13968.4619
2023-05-12T00:08:38.237Z,13968.6152
2023-05-12T00:09:39.888Z,13968.4619
2023-05-12T00:10:41.494Z,13972.0000
2023-05-12T00:11:43.163Z,13971.0771
2023-05-12T00:12:44.790Z,13972.2305
2023-05-12T00:13:46.684Z,13970.8457
2023-05-12T00:14:48.238Z,13971.5381
2023-05-12T00:15:49.873Z,13973.6924
2023-05-12T00:16:51.734Z,13972.3848
2023-05-12T00:17:53.274Z,13974.1543
2023-05-12T00:18:54.855Z,13973.0000
2023-05-12T00:19:56.915Z,13974.3848
2023-05-12T00:20:58.983Z,13972.1543
2023-05-12T00:21:59.748Z,13973.3848
2023-05-12T00:23:01.343Z,13971.1543
2023-05-12T00:24:03.094Z,13975.5381
2023-05-12T00:25:04.702Z,13975.8457
2023-05-12T00:26:06.311Z,13976.0771
2023-05-12T00:27:07.905Z,13976.3076
2023-05-12T00:28:09.698Z,13976.7695
2023-05-12T00:29:11.318Z,13974.7695
2023-05-12T00:30:12.939Z,13975.6924
2023-05-12T00:31:14.551Z,13974.9229
2023-05-12T00:32:16.199Z,13974.9229
2023-05-12T00:33:17.835Z,13976.4619
2023-05-12T00:34:19.593Z,13976.4619
2023-05-12T00:35:21.086Z,13978.3848
2023-05-12T00:36:22.806Z,13979.9229
2023-05-12T00:37:24.406Z,13977.6152
2023-05-12T00:38:26.057Z,13980.0771
2023-05-12T00:39:27.796Z,13979.5381
2023-05-12T00:40:29.398Z,13982.0771
2023-05-12T00:41:30.999Z,13976.0000
2023-05-12T00:42:32.725Z,13978.2305
2023-05-12T00:43:34.329Z,13979.7695
2023-05-12T00:44:36.000Z,13978.3076
2023-05-12T00:45:37.718Z,13979.0771
2023-05-12T00:46:39.240Z,13979.3076
2023-05-12T00:47:40.917Z,13980.0000
2023-05-12T00:48:42.570Z,13982.5381
2023-05-12T00:49:44.284Z,13978.1543
2023-05-12T00:50:45.901Z,13979.1543
2023-05-12T00:51:47.513Z,13982.4619
2023-05-12T00:52:49.189Z,13978.9229
2023-05-12T00:53:50.933Z,13977.6924
2023-05-12T00:54:52.606Z,13978.4619
2023-05-12T00:55:54.161Z,13977.3848
2023-05-12T00:56:55.930Z,13975.4619
2023-05-12T00:57:57.482Z,13977.6152
2023-05-12T00:58:59.133Z,13979.0000
2023-05-12T01:00:00.862Z,13975.5381
2023-05-12T01:01:02.468Z,13975.5381
2023-05-12T01:02:04.061Z,13974.4619
2023-05-12T01:03:05.923Z,13975.2305
2023-05-12T01:04:07.372Z,13977.1543
2023-05-12T01:05:09.088Z,13975.2305
2023-05-12T01:06:10.641Z,13972.8457
2023-05-12T01:07:12.336Z,13974.9229
2023-05-12T01:08:13.925Z,13975.4619
2023-05-12T01:09:15.622Z,13978.0000
2023-05-12T01:10:17.373Z,13973.6152
2023-05-12T01:11:18.897Z,13971.8457
2023-05-12T01:12:20.505Z,13974.6924
2023-05-12T01:13:22.218Z,13973.5381
2023-05-12T01:14:23.938Z,13972.0771
2023-05-12T01:15:25.645Z,13972.0000
2023-05-12T01:16:27.123Z,13972.2305
2023-05-12T01:17:28.897Z,13974.6152
2023-05-12T01:18:30.566Z,13971.1543
2023-05-12T01:19:32.172Z,13973.0771
2023-05-12T01:20:33.730Z,13975.4619
2023-05-12T01:21:35.482Z,13974.5381
2023-05-12T01:22:37.909Z,13973.3076
2023-05-12T01:23:38.712Z,13974.2305
2023-05-12T01:24:40.399Z,13972.6152
2023-05-12T01:25:42.049Z,13973.2305
2023-05-12T01:26:43.675Z,13969.6152
2023-05-12T01:27:45.396Z,13970.1543
2023-05-12T01:28:46.960Z,13976.2305
2023-05-12T01:29:48.665Z,13977.2305
2023-05-12T01:30:50.366Z,13972.3076
2023-05-12T01:31:51.902Z,13972.0000
2023-05-12T01:32:53.571Z,13974.0771
2023-05-12T01:33:55.189Z,13973.9229
2023-05-12T01:34:56.854Z,13975.0000
2023-05-12T01:35:58.562Z,13973.5381
2023-05-12T01:37:00.164Z,13973.8457
2023-05-12T01:38:02.138Z,13972.6924
2023-05-12T01:39:03.455Z,13973.3076
2023-05-12T01:40:05.071Z,13973.8457
2023-05-12T01:41:06.788Z,13975.0000
2023-05-12T01:42:08.444Z,13973.0000
2023-05-12T01:43:10.070Z,13974.6924
2023-05-12T01:44:11.699Z,13977.3848
2023-05-12T01:45:13.358Z,13974.3848
2023-05-12T01:46:15.503Z,13977.5381
2023-05-12T01:47:16.713Z,13974.3076
2023-05-12T01:48:18.272Z,13974.1543
2023-05-12T01:49:19.950Z,13972.5381
2023-05-12T01:50:21.800Z,13975.4619
2023-05-12T01:51:23.346Z,13976.0000
2023-05-12T01:52:24.907Z,13975.0000
2023-05-12T01:53:26.615Z,13974.3076
2023-05-12T01:54:28.184Z,13974.1543
2023-05-12T01:55:29.846Z,13974.9229
2023-05-12T01:56:32.480Z,13977.6924
2023-05-12T01:57:33.130Z,13978.8457
2023-05-12T01:58:34.804Z,13979.3076
2023-05-12T01:59:36.398Z,13975.6152
2023-05-12T02:00:38.172Z,13974.6924
2023-05-12T02:01:39.750Z,13978.3848
2023-05-12T02:02:43.071Z,13978.0771
2023-05-12T02:03:43.166Z,13976.9229
2023-05-12T02:04:44.750Z,13979.0000
2023-05-12T02:05:46.275Z,13981.0000
2023-05-12T02:06:47.996Z,13977.4619
2023-05-12T02:07:49.627Z,13977.1543
2023-05-12T02:08:51.967Z,13972.3076
2023-05-12T02:09:52.859Z,13976.4619
2023-05-12T02:10:54.553Z,13973.3848
2023-05-12T02:11:56.282Z,13974.9229
2023-05-12T02:12:57.912Z,13974.8457
2023-05-12T02:13:59.462Z,13975.0771
2023-05-12T02:15:01.231Z,13973.7695
2023-05-12T02:16:02.898Z,13975.7695
2023-05-12T02:17:04.548Z,13973.0000
2023-05-12T02:18:06.175Z,13973.4619
2023-05-12T02:19:07.805Z,13975.5381
2023-05-12T02:20:09.397Z,13973.6152
2023-05-12T02:21:11.037Z,13971.5381
2023-05-12T02:22:12.689Z,13972.3076
2023-05-12T02:23:14.347Z,13972.0771
2023-05-12T02:24:15.918Z,13971.7695
2023-05-12T02:25:17.606Z,13972.0000
2023-05-12T02:26:19.194Z,13974.0000
2023-05-12T02:27:20.938Z,13970.0000
2023-05-12T02:28:22.567Z,13971.2305
2023-05-12T02:29:24.239Z,13968.3076
2023-05-12T02:30:25.823Z,13970.3848
2023-05-12T02:31:27.605Z,13971.9229
2023-05-12T02:32:29.505Z,13972.5381
2023-05-12T02:33:30.819Z,13972.1543
2023-05-12T02:34:32.475Z,13967.5381
2023-05-12T02:35:34.096Z,13967.7695
2023-05-12T02:36:35.727Z,13967.8457
2023-05-12T02:37:37.505Z,13966.1543
2023-05-12T02:38:39.001Z,13967.7695
2023-05-12T02:39:40.680Z,13967.0000
2023-05-12T02:40:42.324Z,13968.4619
2023-05-12T02:41:44.955Z,13965.5381
2023-05-12T02:42:45.588Z,13969.3848
2023-05-12T02:43:47.206Z,13962.3848
2023-05-12T02:44:48.855Z,13958.3076
2023-05-12T02:45:50.642Z,13960.3848
2023-05-12T02:46:52.120Z,13962.8457
2023-05-12T02:47:53.926Z,13967.9229
2023-05-12T02:48:55.479Z,13971.4619
2023-05-12T02:49:57.104Z,13967.0771
2023-05-12T02:50:58.720Z,13968.6924
2023-05-12T02:52:00.418Z,13969.3848
2023-05-12T02:53:02.085Z,13970.0000
2023-05-12T02:54:03.674Z,13967.3848
2023-05-12T02:55:05.359Z,13959.0771
2023-05-12T02:56:06.992Z,13948.7695
2023-05-12T02:57:08.639Z,13939.0771
2023-05-12T02:58:10.307Z,13941.1543
2023-05-12T02:59:11.945Z,13939.4619
2023-05-12T03:00:13.580Z,13936.9229
2023-05-12T03:01:15.212Z,13944.2305
2023-05-12T03:02:16.892Z,13938.4619
2023-05-12T03:03:18.553Z,13937.3076
2023-05-12T03:04:20.142Z,13940.0771
2023-05-12T03:05:21.803Z,13937.5381
2023-05-12T03:06:23.460Z,13935.3076
2023-05-12T03:07:25.146Z,13935.6924
2023-05-12T03:08:26.818Z,13937.6924
2023-05-12T03:09:28.370Z,13934.9229
2023-05-12T03:10:30.051Z,13937.0000
2023-05-12T03:11:31.652Z,13934.0771
2023-05-12T03:12:33.288Z,13932.7695
2023-05-12T03:13:35.440Z,13935.9229
2023-05-12T03:14:36.657Z,13934.8457
2023-05-12T03:15:38.237Z,13939.6152
2023-05-12T03:16:40.553Z,13937.3076
2023-05-12T03:17:41.581Z,13939.3848
2023-05-12T03:18:43.229Z,13938.1543
2023-05-12T03:19:44.802Z,13932.0000
2023-05-12T03:20:46.518Z,13935.0000
2023-05-12T03:21:48.084Z,13934.0771
2023-05-12T03:22:49.770Z,13933.2305
2023-05-12T03:23:51.452Z,13931.9229
2023-05-12T03:24:53.072Z,13934.6924
2023-05-12T03:25:54.668Z,13933.9229
2023-05-12T03:26:56.320Z,13930.5381
2023-05-12T03:27:57.972Z,13935.3076
2023-05-12T03:28:59.674Z,13932.3848
2023-05-12T03:30:01.252Z,13931.5381
2023-05-12T03:31:03.117Z,13929.3076
2023-05-12T03:32:04.585Z,13932.3076
2023-05-12T03:33:06.253Z,13930.8457
2023-05-12T03:34:07.915Z,13934.2305
2023-05-12T03:35:09.633Z,13933.0000
2023-05-12T03:36:11.139Z,13931.5381
2023-05-12T03:37:12.859Z,13927.6924
2023-05-12T03:38:14.440Z,13929.3848
2023-05-12T03:39:16.191Z,13928.3848
2023-05-12T03:40:18.975Z,13927.9229
2023-05-12T03:41:19.407Z,13928.2305
2023-05-12T03:42:21.048Z,13930.6152
2023-05-12T03:43:22.761Z,13927.3848
2023-05-12T03:44:24.363Z,13932.0771
2023-05-12T03:45:26.062Z,13929.0000
2023-05-12T03:46:27.661Z,13926.3076
2023-05-12T03:47:29.463Z,13928.4619
2023-05-12T03:48:30.971Z,13932.3076
2023-05-12T03:49:32.567Z,13933.3076
2023-05-12T03:50:34.258Z,13931.0000
2023-05-12T03:51:35.978Z,13933.4619
2023-05-12T03:52:37.513Z,13930.9229
2023-05-12T03:53:39.188Z,13930.9229
2023-05-12T03:54:40.809Z,13930.3848
2023-05-12T03:55:42.965Z,13932.2305
2023-05-12T03:56:44.133Z,13928.9229
2023-05-12T03:57:45.744Z,13930.1543
2023-05-12T03:58:47.436Z,13933.3848
2023-05-12T03:59:49.102Z,13930.3076
2023-05-12T04:00:50.732Z,13930.7695
2023-05-12T04:01:52.392Z,13929.2305
2023-05-12T04:02:54.038Z,13931.9229
2023-05-12T04:03:55.729Z,13931.2305
2023-05-12T04:04:57.281Z,13930.6152
2023-05-12T04:05:58.967Z,13930.6152
2023-05-12T04:07:00.650Z,13930.6152
2023-05-12T04:08:02.228Z,13930.0771
2023-05-12T04:09:03.896Z,13931.3076
2023-05-12T04:10:05.540Z,13927.0771
2023-05-12T04:11:07.481Z,13927.9229
2023-05-12T04:12:08.793Z,13926.3076
2023-05-12T04:13:10.460Z,13928.6924
2023-05-12T04:14:12.083Z,13928.1543
2023-05-12T04:15:13.799Z,13928.6924
2023-05-12T04:16:15.524Z,13923.4619
2023-05-12T04:17:17.041Z,13927.0000
2023-05-12T04:18:18.697Z,13925.2305
2023-05-12T04:19:20.329Z,13925.0000
2023-05-12T04:20:22.121Z,13927.6152
2023-05-12T04:21:24.494Z,13928.8457
2023-05-12T04:22:25.817Z,13926.0771
2023-05-12T04:23:26.945Z,13927.6152
2023-05-12T04:24:28.648Z,13926.9229
2023-05-12T04:25:30.234Z,13926.6924
2023-05-12T04:26:31.872Z,13923.0771
2023-05-12T04:27:33.526Z,13923.0000
2023-05-12T04:28:35.176Z,13924.2305
2023-05-12T04:29:36.825Z,13923.8457
2023-05-12T04:30:38.470Z,13924.3848
2023-05-12T04:31:40.177Z,13921.0771
2023-05-12T04:32:41.789Z,13923.0000
2023-05-12T04:33:43.464Z,13920.5381
2023-05-12T04:34:45.951Z,13922.6152
2023-05-12T04:35:47.453Z,13920.9229
2023-05-12T04:36:48.389Z,13925.6924
2023-05-12T04:37:50.973Z,13921.2305
2023-05-12T04:38:51.699Z,13924.8457
2023-05-12T04:39:53.280Z,13920.7695
2023-05-12T04:40:54.914Z,13918.6152
2023-05-12T04:41:56.666Z,13918.9229
2023-05-12T04:42:58.232Z,13920.3848
2023-05-12T04:44:00.380Z,13919.6924
2023-05-12T04:45:01.505Z,13917.8457
2023-05-12T04:46:03.222Z,13917.8457
2023-05-12T04:47:04.875Z,13917.8457
2023-05-12T04:48:07.501Z,13914.4619
2023-05-12T04:49:09.095Z,13917.6152
2023-05-12T04:50:09.950Z,13916.9229
2023-05-12T04:51:11.604Z,13919.5381
2023-05-12T04:52:13.228Z,13909.0000
2023-05-12T04:53:14.828Z,13912.3076
2023-05-12T04:54:16.495Z,13907.3076
2023-05-12T04:55:18.429Z,13902.4619
2023-05-12T04:56:19.883Z,13903.8457
2023-05-12T04:57:21.653Z,13904.5381
2023-05-12T04:58:23.141Z,13895.5381
2023-05-12T04:59:24.731Z,13895.3076
2023-05-12T05:00:26.516Z,13893.7695
2023-05-12T05:01:28.106Z,13908.6152
2023-05-12T05:02:30.270Z,13905.3076
2023-05-12T05:03:31.492Z,13890.6152
2023-05-12T05:04:33.047Z,13879.7695
2023-05-12T05:05:34.658Z,13873.0771
2023-05-12T05:06:36.306Z,13887.6924
2023-05-12T05:07:38.947Z,13885.5381
2023-05-12T05:08:40.443Z,13890.6924
2023-05-12T05:09:41.291Z,13879.0000
2023-05-12T05:10:42.868Z,13870.3848
2023-05-12T05:11:44.586Z,13863.5381
2023-05-12T05:12:46.171Z,13876.5381
2023-05-12T05:13:47.841Z,13887.3848
2023-05-12T05:14:50.425Z,13871.6924
2023-05-12T05:15:51.295Z,13866.1543
2023-05-12T05:16:52.750Z,13859.3076
2023-05-12T05:17:54.647Z,13867.7695
2023-05-12T05:18:57.614Z,13862.0771
2023-05-12T05:19:59.226Z,13874.7695
2023-05-12T05:20:59.522Z,13860.7695
2023-05-12T05:22:01.021Z,13851.4619
2023-05-12T05:23:02.724Z,13847.6924
2023-05-12T05:24:04.346Z,13858.3848
2023-05-12T05:25:05.930Z,13859.9229
2023-05-12T05:26:07.667Z,13864.7695
2023-05-12T05:27:09.230Z,13847.8457
2023-05-12T05:28:10.966Z,13845.7695
2023-05-12T05:29:12.548Z,13848.1543
2023-05-12T05:30:14.256Z,13856.0771
2023-05-12T05:31:15.866Z,13861.9229
2023-05-12T05:32:17.499Z,13855.4619
2023-05-12T05:33:19.250Z,13844.3076
2023-05-12T05:34:20.812Z,13835.5381
2023-05-12T05:35:22.635Z,13840.5381
2023-05-12T05:36:24.046Z,13852.2305
2023-05-12T05:37:25.717Z,13852.6924
2023-05-12T05:38:28.225Z,13838.6152
2023-05-12T05:39:28.958Z,13830.9229
2023-05-12T05:40:38.536Z,13831.9229
2023-05-12T05:41:32.471Z,13835.5381
2023-05-12T05:42:34.058Z,13847.3076
2023-05-12T05:43:35.623Z,13844.6152
2023-05-12T05:44:37.182Z,13828.3848
2023-05-12T05:45:38.888Z,13825.0771
2023-05-12T05:46:40.547Z,13829.5381
2023-05-12T05:47:42.220Z,13835.6924
2023-05-12T05:48:43.859Z,13837.3848
2023-05-12T05:49:45.468Z,13829.3848
2023-05-12T05:50:47.089Z,13824.1543
2023-05-12T05:51:48.751Z,13817.6924
2023-05-12T05:52:50.404Z,13829.7695
2023-05-12T05:53:52.107Z,13830.6924
2023-05-12T05:54:53.714Z,13832.6152
2023-05-12T05:55:55.694Z,13822.1543
2023-05-12T05:56:57.264Z,13811.4619
2023-05-12T05:57:58.710Z,13822.0000
2023-05-12T05:59:00.272Z,13829.7695
2023-05-12T06:00:01.999Z,13835.7695
2023-05-12T06:01:04.091Z,13822.9229
2023-05-12T06:02:05.294Z,13810.1543
2023-05-12T06:03:06.991Z,13808.8457
2023-05-12T06:04:09.544Z,13812.0771
2023-05-12T06:05:10.146Z,13822.8457
2023-05-12T06:06:12.957Z,13830.1543
2023-05-12T06:07:13.452Z,13815.6152
2023-05-12T06:08:15.035Z,13805.6924
2023-05-12T06:09:16.734Z,13809.8457
2023-05-12T06:10:18.622Z,13810.8457
2023-05-12T06:11:19.983Z,13820.6924
2023-05-12T06:12:21.570Z,13815.0771
2023-05-12T06:13:23.245Z,13807.3076
2023-05-12T06:14:25.100Z,13796.2305
2023-05-12T06:15:26.584Z,13801.7695
2023-05-12T06:16:28.240Z,13804.3076
2023-05-12T06:17:32.066Z,13819.0771
2023-05-12T06:18:31.490Z,13813.1543
2023-05-12T06:19:33.722Z,13798.0771
2023-05-12T06:20:34.769Z,13792.6152
2023-05-12T06:21:36.428Z,13798.2305
2023-05-12T06:22:38.056Z,13797.6924
2023-05-12T06:23:39.774Z,13808.4619
2023-05-12T06:24:41.401Z,13802.5381
2023-05-12T06:25:43.029Z,13799.0771
2023-05-12T06:26:44.675Z,13791.4619
2023-05-12T06:27:46.316Z,13797.7695
2023-05-12T06:28:47.984Z,13802.6924
2023-05-12T06:29:49.604Z,13816.7695
2023-05-12T06:30:51.220Z,13811.0000
2023-05-12T06:31:52.902Z,13802.8457
2023-05-12T06:32:54.519Z,13794.6924
2023-05-12T06:33:56.159Z,13804.1543
2023-05-12T06:34:57.846Z,13813.6924
2023-05-12T06:35:59.543Z,13827.0771
2023-05-12T06:37:01.074Z,13813.8457
2023-05-12T06:38:02.805Z,13804.1543
2023-05-12T06:39:04.418Z,13802.0771
2023-05-12T06:40:06.072Z,13818.1543
2023-05-12T06:41:08.669Z,13824.9229
2023-05-12T06:42:09.385Z,13825.8457
2023-05-12T06:43:10.978Z,13810.2305
2023-05-12T06:44:12.643Z,13806.6924
2023-05-12T06:45:14.287Z,13806.0771
2023-05-12T06:46:16.030Z,13817.4619
2023-05-12T06:47:17.544Z,13826.9229
2023-05-12T06:48:19.172Z,13828.6924
2023-05-12T06:49:20.796Z,13810.0000
2023-05-12T06:50:22.572Z,13809.3848
2023-05-12T06:51:24.135Z,13775.3076
2023-05-12T06:52:26.490Z,13819.7695
2023-05-12T06:53:27.371Z,13831.0000
2023-05-12T06:54:29.144Z,13829.3848
2023-05-12T06:55:30.717Z,13817.3076
2023-05-12T06:56:32.453Z,13811.4619
2023-05-12T06:57:34.047Z,13788.4619
2023-05-12T06:58:35.619Z,13823.6152
2023-05-12T06:59:37.304Z,13832.8457
2023-05-12T07:00:39.669Z,13832.3848
2023-05-12T07:01:40.691Z,13810.6924
2023-05-12T07:02:42.280Z,13816.8457
2023-05-12T07:03:43.855Z,13794.5381
2023-05-12T07:04:45.625Z,13828.7695
2023-05-12T07:05:47.189Z,13839.0771
2023-05-12T07:06:48.912Z,13836.1543
2023-05-12T07:07:50.576Z,13815.9229
2023-05-12T07:08:52.157Z,13818.0000
2023-05-12T07:09:53.738Z,13798.2305
2023-05-12T07:10:55.467Z,13833.6152
2023-05-12T07:11:57.126Z,13841.4619
2023-05-12T07:12:58.722Z,13837.4619
2023-05-12T07:14:00.377Z,13827.7695
2023-05-12T07:15:02.017Z,13821.6924
2023-05-12T07:16:03.626Z,13801.0000
2023-05-12T07:17:05.242Z,13833.8457
2023-05-12T07:18:06.991Z,13843.3848
2023-05-12T07:19:08.672Z,13835.1543
2023-05-12T07:20:10.172Z,13825.7695
2023-05-12T07:21:11.867Z,13816.8457
2023-05-12T07:22:16.179Z,13801.4619
2023-05-12T07:23:15.049Z,13837.0000
2023-05-12T07:24:16.708Z,13845.4619
2023-05-12T07:25:19.150Z,13834.9229
2023-05-12T07:26:21.648Z,13827.1543
2023-05-12T07:27:21.624Z,13826.4619
2023-05-12T07:28:23.276Z,13806.9229
2023-05-12T07:29:24.914Z,13840.7695
2023-05-12T07:30:26.660Z,13853.3076
2023-05-12T07:31:29.197Z,13844.3848
2023-05-12T07:32:29.920Z,13817.3848
2023-05-12T07:33:32.683Z,13819.0771
2023-05-12T07:34:33.208Z,13806.3848
2023-05-12T07:35:34.949Z,13845.1543
2023-05-12T07:36:36.574Z,13857.4619
2023-05-12T07:37:38.356Z,13847.4619
2023-05-12T07:38:39.905Z,13826.8457
2023-05-12T07:39:41.554Z,13824.6924
2023-05-12T07:40:43.140Z,13804.4619
2023-05-12T07:41:44.876Z,13844.3848
2023-05-12T07:42:46.429Z,13854.6152
2023-05-12T07:43:48.276Z,13840.0771
2023-05-12T07:44:49.706Z,13824.4619
2023-05-12T07:45:51.441Z,13821.3076
2023-05-12T07:46:54.100Z,13796.9229
2023-05-12T07:47:55.557Z,13843.4619
2023-05-12T07:48:56.266Z,13851.4619
2023-05-12T07:49:58.693Z,13849.6924
2023-05-12T07:50:59.543Z,13832.3848
2023-05-12T07:52:01.270Z,13826.8457
2023-05-12T07:53:02.856Z,13786.9229
2023-05-12T07:54:04.540Z,13841.0000
2023-05-12T07:55:06.158Z,13854.4619
2023-05-12T07:56:07.861Z,13846.5381
2023-05-12T07:57:09.478Z,13834.2305
2023-05-12T07:58:11.059Z,13824.7695
2023-05-12T07:59:12.754Z,13808.6152
2023-05-12T08:00:14.413Z,13847.3076
2023-05-12T08:01:16.109Z,13856.5381
2023-05-12T08:02:18.202Z,13851.1543
2023-05-12T08:03:19.403Z,13837.6152
2023-05-12T08:04:21.027Z,13828.6924
2023-05-12T08:05:22.701Z,13798.5381
2023-05-12T08:06:25.026Z,13848.2305
2023-05-12T08:07:26.195Z,13856.8457
2023-05-12T08:08:27.516Z,13849.5381
2023-05-12T08:09:29.221Z,13835.6924
2023-05-12T08:10:30.843Z,13828.0000
2023-05-12T08:11:32.475Z,13802.3848
2023-05-12T08:12:34.131Z,13849.0000
2023-05-12T08:13:35.733Z,13856.1543
2023-05-12T08:14:37.335Z,13837.3848
2023-05-12T08:15:39.045Z,13837.0000
2023-05-12T08:16:40.739Z,13832.1543
2023-05-12T08:17:42.359Z,13799.4619
2023-05-12T08:18:43.986Z,13842.3848
2023-05-12T08:19:45.571Z,13854.3848
2023-05-12T08:20:47.249Z,13857.2305
2023-05-12T08:21:48.878Z,13836.0000
2023-05-12T08:22:52.173Z,13828.1543
2023-05-12T08:23:53.209Z,13815.3848
2023-05-12T08:24:54.044Z,13847.8457
2023-05-12T08:25:55.600Z,13857.8457
2023-05-12T08:26:57.359Z,13858.0000
2023-05-12T08:27:58.976Z,13833.1543
2023-05-12T08:29:00.599Z,13841.0000
2023-05-12T08:30:02.223Z,13837.9229
2023-05-12T08:31:05.127Z,13836.7695
2023-05-12T08:32:05.421Z,13858.5381
2023-05-12T08:33:07.213Z,13860.0000
2023-05-12T08:34:10.906Z,13841.6924
2023-05-12T08:35:10.391Z,13836.5381
2023-05-12T08:36:11.987Z,13830.3848
2023-05-12T08:37:13.783Z,13840.1543
2023-05-12T08:38:15.662Z,13857.6924
2023-05-12T08:39:16.957Z,13867.1543
2023-05-12T08:40:18.571Z,13862.1543
2023-05-12T08:41:20.257Z,13843.3076
2023-05-12T08:42:21.960Z,13838.3076
2023-05-12T08:43:23.624Z,13836.2305
2023-05-12T08:44:25.172Z,13851.5381
2023-05-12T08:45:26.913Z,13865.6924
2023-05-12T08:46:28.509Z,13863.3848
2023-05-12T08:47:30.145Z,13837.0771
2023-05-12T08:48:31.788Z,13826.8457
2023-05-12T08:49:33.495Z,13837.2305
2023-05-12T08:50:35.128Z,13841.6924
2023-05-12T08:51:36.721Z,13858.9229
2023-05-12T08:52:38.363Z,13865.3076
2023-05-12T08:53:40.057Z,13849.7695
2023-05-12T08:54:52.414Z,13833.0000
2023-05-12T08:55:48.224Z,13834.9229
2023-05-12T08:57:46.627Z,13855.2305
2023-05-12T08:58:48.222Z,13865.0000
2023-05-12T08:59:49.969Z,13845.2305
2023-05-12T09:00:51.604Z,13831.7695
2023-05-12T09:01:53.363Z,13826.5381
2023-05-12T09:02:55.118Z,13816.6152
2023-05-12T09:03:56.598Z,13850.8457
2023-05-12T09:04:58.192Z,13866.8457
2023-05-12T09:05:59.836Z,13851.6924
2023-05-12T09:07:01.459Z,13840.5381
2023-05-12T09:08:03.112Z,13838.6152
2023-05-12T09:09:04.763Z,13816.5381
2023-05-12T09:10:06.419Z,13854.0771
2023-05-12T09:11:08.086Z,13862.8457
2023-05-12T09:12:10.556Z,13844.6924
2023-05-12T09:13:11.343Z,13833.9229
2023-05-12T09:14:13.049Z,13831.3848
2023-05-12T09:15:14.729Z,13822.0771
2023-05-12T09:16:16.334Z,13850.8457
2023-05-12T09:17:17.992Z,13860.0000
2023-05-12T09:18:19.623Z,13859.4619
2023-05-12T09:19:21.186Z,13841.9229
2023-05-12T09:20:30.818Z,13835.6924
2023-05-12T09:21:24.438Z,13808.7500
2023-05-12T09:22:26.084Z,13845.3848
2023-05-12T09:23:27.742Z,13856.8457
2023-05-12T09:24:29.387Z,13851.3076
2023-05-12T09:25:31.078Z,13838.2305
2023-05-12T09:26:32.704Z,13827.3848
2023-05-12T09:27:34.389Z,13806.6152
2023-05-12T09:28:36.020Z,13843.3848
2023-05-12T09:29:45.310Z,13855.0771
2023-05-12T09:30:39.317Z,13853.8457
2023-05-12T09:31:40.959Z,13834.0771
2023-05-12T09:32:42.548Z,13824.6924
2023-05-12T09:33:44.217Z,13817.0771
2023-05-12T09:34:46.595Z,13851.7695
2023-05-12T09:35:47.543Z,13859.0771
2023-05-12T09:36:49.156Z,13854.3076
2023-05-12T09:37:51.846Z,13833.3848
2023-05-12T09:38:52.595Z,13813.6152
2023-05-12T09:39:54.192Z,13819.0771
2023-05-12T09:40:55.873Z,13853.9229
2023-05-12T09:41:57.552Z,13861.1543
2023-05-12T09:42:59.144Z,13851.0771
2023-05-12T09:44:00.894Z,13834.3076
2023-05-12T09:45:02.478Z,13818.0000
2023-05-12T09:46:04.139Z,13836.0771
2023-05-12T09:47:05.800Z,13851.7695
2023-05-12T09:48:07.442Z,13857.4619
2023-05-12T09:49:09.111Z,13852.3076
2023-05-12T09:50:10.741Z,13831.6152
2023-05-12T09:51:12.376Z,13805.1543
2023-05-12T09:52:14.036Z,13839.6152
2023-05-12T09:53:15.709Z,13856.3076
2023-05-12T09:54:18.281Z,13862.3076
2023-05-12T09:55:19.068Z,13839.4619
2023-05-12T09:56:20.645Z,13838.5381
2023-05-12T09:57:22.248Z,13809.2305
2023-05-12T09:58:23.891Z,13852.7695
2023-05-12T09:59:25.576Z,13858.3076
2023-05-12T10:00:41.293Z,13853.6152
2023-05-12T10:01:28.873Z,13828.1543
2023-05-12T10:02:30.725Z,13800.6924
2023-05-12T10:03:32.099Z,13820.0771
2023-05-12T10:04:33.802Z,13847.3076
2023-05-12T10:05:35.400Z,13854.4619
2023-05-12T10:06:37.748Z,13843.9229
2023-05-12T10:07:38.802Z,13818.7695
2023-05-12T10:08:40.509Z,13803.9229
2023-05-12T10:09:41.999Z,13835.0771
2023-05-12T10:10:43.612Z,13850.9229
2023-05-12T10:11:45.348Z,13858.6924
2023-05-12T10:12:46.957Z,13848.3848
2023-05-12T10:13:48.597Z,13817.7695
2023-05-12T10:14:50.207Z,13800.3848
2023-05-12T10:15:51.954Z,13837.2305
2023-05-12T10:16:54.268Z,13857.9229
2023-05-12T10:17:55.264Z,13860.2305
2023-05-12T10:18:56.898Z,13841.6152
2023-05-12T10:19:58.449Z,13816.0000
2023-05-12T10:21:00.240Z,13805.0000
2023-05-12T10:22:02.346Z,13843.2305
2023-05-12T10:23:03.419Z,13850.6152
2023-05-12T10:24:05.053Z,13852.5381
2023-05-12T10:25:06.673Z,13847.3076
2023-05-12T10:26:08.337Z,13824.2305
2023-05-12T10:27:10.752Z,13813.1543
2023-05-12T10:28:11.784Z,13842.3848
2023-05-12T10:29:13.296Z,13853.0771
2023-05-12T10:30:14.944Z,13849.0000
2023-05-12T10:31:16.712Z,13826.4619
2023-05-12T10:32:19.292Z,13810.3848
2023-05-12T10:33:20.358Z,13817.6152
2023-05-12T10:34:21.662Z,13848.5381
2023-05-12T10:35:23.171Z,13854.6152
2023-05-12T10:36:24.844Z,13843.3848
2023-05-12T10:37:27.216Z,13821.5381
2023-05-12T10:38:28.158Z,13812.6152
2023-05-12T10:39:29.718Z,13839.0771
2023-05-12T10:40:32.381Z,13852.6152
2023-05-12T10:41:33.049Z,13853.3848
2023-05-12T10:42:35.275Z,13849.3076
2023-05-12T10:43:36.372Z,13822.4619
2023-05-12T10:44:38.022Z,13815.3848
2023-05-12T10:45:39.663Z,13849.1543
2023-05-12T10:46:41.317Z,13857.6924
2023-05-12T10:47:43.059Z,13860.0771
2023-05-12T10:48:44.597Z,13843.7695
2023-05-12T10:49:46.264Z,13814.8457
2023-05-12T10:50:47.858Z,13792.5381
2023-05-12T10:51:49.524Z,13853.0771
2023-05-12T10:52:51.172Z,13864.1543
2023-05-12T10:53:54.860Z,13856.0771
2023-05-12T10:54:54.509Z,13843.6924
2023-05-12T10:55:56.288Z,13829.6152
2023-05-12T10:56:57.964Z,13807.5381
2023-05-12T10:58:00.154Z,13855.1543
2023-05-12T10:59:01.468Z,13865.5381
2023-05-12T11:00:03.835Z,13863.3848
2023-05-12T11:01:05.055Z,13842.8457
2023-05-12T11:02:06.975Z,13820.7695
2023-05-12T11:03:10.441Z,13824.7695
2023-05-12T11:04:09.410Z,13851.7695
2023-05-12T11:05:11.223Z,13863.6152
2023-05-12T11:06:12.806Z,13853.5381
2023-05-12T11:07:14.707Z,13838.5381
2023-05-12T11:08:16.061Z,13812.4619
2023-05-12T11:09:18.002Z,13828.4619
2023-05-12T11:10:19.706Z,13848.5381
2023-05-12T11:11:20.870Z,13858.3076
2023-05-12T11:12:22.583Z,13852.0771
2023-05-12T11:13:24.192Z,13835.5381
2023-05-12T11:14:25.819Z,13809.7695
2023-05-12T11:15:27.491Z,13832.7695
2023-05-12T11:16:29.155Z,13841.0771
2023-05-12T11:17:30.784Z,13853.6152
2023-05-12T11:18:32.442Z,13844.0771
2023-05-12T11:19:34.074Z,13822.0771
2023-05-12T11:20:35.628Z,13809.2305
2023-05-12T11:21:37.371Z,13839.1543
2023-05-12T11:22:38.979Z,13851.3848
2023-05-12T11:23:40.704Z,13853.6152
2023-05-12T11:24:42.298Z,13842.0000